KNRS/NRS METAR and TAF weather

Enter ICAO airport designator
Station Type Date Time Source
KNRS METAR 2018/12/13 22:56 UTC NOAA

KNRS 132256Z 23013KT 10SM FEW010 FEW250 18/14 A3016 RMK AO2 SLP211 T01830139 $


Station Type Date Time Source
KNRS Decoded METAR 2018/12/13 22:56 UTC NOAA

IMPERIAL BEACH, NOLF, CA, United States (KNRS) 32-34N 117-07W 5M
Dec 13, 2018 - 05:56 PM EST / 2018.12.13 2256 UTC
Wind: from the SW (230 degrees) at 15 MPH (13 KT):0
Visibility: 10 mile(s):0
Sky conditions: mostly clear
Temperature: 64.9 F (18.3 C)
Dew Point: 57.0 F (13.9 C)
Relative Humidity: 75%
Pressure (altimeter): 30.16 in. Hg (1021 hPa)
ob: KNRS 132256Z 23013KT 10SM FEW010 FEW250 18/14 A3016 RMK AO2 SLP211 T01830139
cycle: 23

Station Type Date Time Source
KNRS TAF UTC NOAA

Error!


Example: see airport list